Wendy C — WYB6131 — position and weather

sailwx.info

Track history (hours):
 
Tides and Currents Weather Stations Pressure Air Temp Water Temp Dewpoint Dewpoint Depression Visibility Wind Speed Wind Dir Waves Ship Positions

Wendy C

Owner: Harbor Towing & Fleeting, Inc., Metairie, LA. More information available from US FCC via Universal Licensing System and Coast Guard Vessel Documentation Center.

Last reported at 2015-Mar-27 11:32 UTC. Time now 2015-Mar-27 21:00 UTC.
Position N 29°56' W 090°00'.

Length 19 m; draft 3 m.

Type: Towing. MMSI: 366160126.

Date/timePositionNaut miles runAvg speedWind from/ knotsBaromVisibWave heightAir tempDewpointWater temp
2015-Mar-27 11:32N 29°56' W 090°00'1 0.5
2015-Mar-27 08:28N 29°57' W 090°02'2 2.2
2015-Mar-27 07:31N 29°59' W 090°01'2 1.2
2015-Mar-27 06:12N 29°58' W 090°02'0 0.0
2015-Mar-27 05:30N 29°58' W 090°02'2 1.8
2015-Mar-27 04:31N 29°56' W 090°00'0 0.0
2015-Mar-27 03:26N 29°56' W 090°00'0 0.0
2015-Mar-27 02:30N 29°56' W 090°00'0 0.0
2015-Mar-27 01:32N 29°56' W 090°00'0 0.0
2015-Mar-27 00:33N 29°56' W 090°00'0 0.1
2015-Mar-26 23:21N 29°56' W 090°00'0 0.1
2015-Mar-26 22:33N 29°56' W 090°00'0 0.0
2015-Mar-26 21:30N 29°56' W 090°00'0 0.0
2015-Mar-26 20:30N 29°56' W 090°00'0 0.0
2015-Mar-26 19:33N 29°56' W 090°00'0 0.0
2015-Mar-26 18:33N 29°56' W 090°00'0 0.0
2015-Mar-26 17:32N 29°56' W 090°00'0 0.0
2015-Mar-26 16:32N 29°56' W 090°00'0 0.0
2015-Mar-26 15:32N 29°56' W 090°00'0 0.0
2015-Mar-26 14:33N 29°56' W 090°00'0 0.0
2015-Mar-26 13:33N 29°56' W 090°00'0 0.0
2015-Mar-25 16:16N 29°56' W 090°00'0 0.3
2015-Mar-25 15:25N 29°57' W 090°01'2 2.6
2015-Mar-25 14:28N 29°57' W 090°03'2 2.4
2015-Mar-25 13:32N 29°57' W 090°01'1 0.2
2015-Mar-25 11:28N 29°56' W 090°00'0 0.0
2015-Mar-25 10:28N 29°56' W 090°00'0 0.0
2015-Mar-25 09:19N 29°56' W 090°00'0 0.0
2015-Mar-25 08:29N 29°56' W 090°00'0 0.0
2015-Mar-25 07:33N 29°56' W 090°00'0 0.0
2015-Mar-25 06:33N 29°56' W 090°00'0 0.0
2015-Mar-25 05:33N 29°56' W 090°00'0 0.0
2015-Mar-25 04:33N 29°56' W 090°00'0 0.0
2015-Mar-25 03:32N 29°56' W 090°00'2 1.5
2015-Mar-25 02:29N 29°55' W 089°59'1 0.7
2015-Mar-25 01:28N 29°55' W 089°59'6 5.8
2015-Mar-25 00:29N 29°50' W 090°03'4 1.5
2015-Mar-24 21:33N 29°54' W 089°60'2 1.8
2015-Mar-24 20:30N 29°55' W 089°58'2 1.1
2015-Mar-24 18:26N 29°56' W 090°00'2 2.5
2015-Mar-24 17:32N 29°58' W 090°01'0 0.0
2015-Mar-24 16:33N 29°58' W 090°01'1 1.1
2015-Mar-24 15:33N 29°59' W 090°01'2 1.5
2015-Mar-24 14:27N 29°58' W 090°02'0 0.3
2015-Mar-24 13:30N 29°58' W 090°02'0 0.0
2015-Mar-24 12:30N 29°58' W 090°02'1 1.2
2015-Mar-24 11:30N 29°57' W 090°01'3 0.2
2015-Mar-23 18:12N 29°60' W 090°00'2 1.4
2015-Mar-23 17:04N 29°58' W 090°01'2 1.1
2015-Mar-23 15:07N 29°56' W 090°00'0 0.1
2015-Mar-23 13:30N 29°56' W 090°00'0 0.0
2015-Mar-23 12:18N 29°56' W 090°00'0 0.3
2015-Mar-23 11:18N 29°56' W 090°00'0 0.0
2015-Mar-23 10:26N 29°56' W 090°00'0 0.0
2015-Mar-23 09:24N 29°56' W 090°00'1 1.2
2015-Mar-23 08:31N 29°57' W 090°01'3 2.7
2015-Mar-23 07:25N 29°60' W 090°01'0 0.4
2015-Mar-23 06:32N 29°60' W 090°00'1 0.9
2015-Mar-23 05:33N 29°60' W 090°01'1 0.8
2015-Mar-23 04:33N 29°60' W 090°00'2 2.0
2015-Mar-23 03:28N 29°58' W 090°02'1 0.8
2015-Mar-23 02:33N 29°57' W 090°01'2 2.4
2015-Mar-23 01:33N 29°56' W 089°59'1 1.0
2015-Mar-23 00:17N 29°55' W 089°58'0 0.1
2015-Mar-22 23:19N 29°55' W 089°58'1 1.6
2015-Mar-22 22:33N 29°54' W 089°60'2 0.4
2015-Mar-22 18:32N 29°55' W 089°58'1 0.8
2015-Mar-22 17:33N 29°55' W 089°57'3 2.7
2015-Mar-22 16:29N 29°56' W 090°00'0 0.0
2015-Mar-22 15:33N 29°56' W 090°00'0 0.0
2015-Mar-22 14:29N 29°56' W 090°00'0 0.0
2015-Mar-22 13:33N 29°56' W 090°00'0 0.0
2015-Mar-21 20:10N 29°56' W 090°00'0 0.1
2015-Mar-21 18:10N 29°56' W 090°00'3 0.7
2015-Mar-21 13:17N 29°59' W 090°01'3 1.6
2015-Mar-21 11:29N 29°56' W 090°00'2 1.8
2015-Mar-21 10:29N 29°58' W 090°02'2 2.1
2015-Mar-21 09:32N 29°60' W 090°01'1 0.6
2015-Mar-21 08:29N 29°59' W 090°01'2 2.0
2015-Mar-21 07:32N 29°57' W 090°02'0 0.2
2015-Mar-21 06:32N 29°57' W 090°01'2 1.6
2015-Mar-21 05:30N 29°56' W 090°00'2 2.3
2015-Mar-21 04:32N 29°58' W 090°02'3 2.9
2015-Mar-21 03:33N 30°00' W 089°59'3 2.5
2015-Mar-21 02:32N 29°58' W 090°01'1 0.7
2015-Mar-21 01:30N 29°58' W 090°02'2 2.3
2015-Mar-21 00:32N 29°56' W 089°60'2 1.7
2015-Mar-20 23:06N 29°58' W 090°02'1 1.7
2015-Mar-20 22:31N 29°59' W 090°01'0 0.0
2015-Mar-20 21:30N 29°59' W 090°01'1 0.1
2015-Mar-20 05:25N 29°60' W 089°60'0 0.0
2015-Mar-20 04:33N 29°60' W 089°60'3 2.1
2015-Mar-20 03:19N 29°58' W 090°02'1 0.9
2015-Mar-20 02:22N 29°57' W 090°01'1 0.8
2015-Mar-20 01:14N 29°56' W 090°00'0 0.1
2015-Mar-20 00:16N 29°56' W 090°00'0 0.1
2015-Mar-19 23:27N 29°56' W 090°00'0 0.0
2015-Mar-19 22:26N 29°56' W 090°00'0 0.0
2015-Mar-19 21:29N 29°56' W 090°00'0 0.0
2015-Mar-19 20:33N 29°56' W 090°00'0 0.0
2015-Mar-19 19:31N 29°56' W 090°00'0 0.0
2015-Mar-19 18:32N 29°56' W 090°00'1 1.2
2015-Mar-19 17:29N 29°56' W 089°59'3 3.2
2015-Mar-19 16:32N 29°58' W 090°02'0 0.4
2015-Mar-19 15:32N 29°58' W 090°02'1 0.9
2015-Mar-19 14:33N 29°59' W 090°01'0 0.0
2015-Mar-19 13:33N 29°59' W 090°01'2 1.7
2015-Mar-19 12:32N 29°60' W 089°60'5 5.0
2015-Mar-19 11:28N 30°01' W 089°54'5 4.7
2015-Mar-19 10:28N 29°60' W 089°59'3 3.4
2015-Mar-19 09:32N 29°58' W 090°02'3 2.7
2015-Mar-19 08:28N 29°56' W 089°59'3 3.2
2015-Mar-19 07:33N 29°58' W 090°02'1 0.0
2015-Mar-18 10:25N 29°59' W 090°01'0 0.0
2015-Mar-18 09:27N 29°59' W 090°01'2 1.6
2015-Mar-18 08:05N 29°60' W 089°59'2 4.6
2015-Mar-18 07:33N 29°58' W 090°02'1 1.3
2015-Mar-18 06:22N 29°57' W 090°01'3 0.8
2015-Mar-18 02:19N 29°55' W 089°57'5 3.8
2015-Mar-18 01:06N 29°58' W 090°02'0 0.4
2015-Mar-18 00:29N 29°58' W 090°02'0 0.1
2015-Mar-17 23:32N 29°58' W 090°02'0 0.3
2015-Mar-17 22:31N 29°58' W 090°02'2 2.0
2015-Mar-17 21:33N 29°56' W 090°00'0 0.0
2015-Mar-17 20:33N 29°56' W 090°00'0 0.0
2015-Mar-17 19:33N 29°56' W 090°00'2 1.6
2015-Mar-17 18:33N 29°55' W 089°59'0 0.4
2015-Mar-17 17:19N 29°55' W 089°58'4 5.3
2015-Mar-17 16:33N 29°58' W 090°02'1 0.5
2015-Mar-17 15:33N 29°58' W 090°01'1 1.2
2015-Mar-17 14:33N 29°60' W 090°01'2 1.8
2015-Mar-17 13:33N 29°58' W 090°02'2 1.9
2015-Mar-17 12:33N 29°56' W 090°00'0 0.2
2015-Mar-17 11:33N 29°56' W 090°00'  
Track history (hours):
 
Tides and Currents Weather Stations Pressure Air Temp Water Temp Dewpoint Dewpoint Depression Visibility Wind Speed Wind Dir Waves Ship Positions

Wendy C

Owner: Harbor Towing & Fleeting, Inc., Metairie, LA. More information available from US FCC via Universal Licensing System and Coast Guard Vessel Documentation Center.

Last reported at 2015-Mar-27 11:32 UTC. Time now 2015-Mar-27 21:00 UTC.
Position N 29°56' W 090°00'.

Length 19 m; draft 3 m.

Type: Towing. MMSI: 366160126.

Date/timePositionNaut miles runAvg speedWind from/ knotsBaromVisibWave heightAir tempDewpointWater temp
2015-Mar-27 11:32N 29°56' W 090°00'1 0.5
2015-Mar-27 08:28N 29°57' W 090°02'2 2.2
2015-Mar-27 07:31N 29°59' W 090°01'2 1.2
2015-Mar-27 06:12N 29°58' W 090°02'0 0.0
2015-Mar-27 05:30N 29°58' W 090°02'2 1.8
2015-Mar-27 04:31N 29°56' W 090°00'0 0.0
2015-Mar-27 03:26N 29°56' W 090°00'0 0.0
2015-Mar-27 02:30N 29°56' W 090°00'0 0.0
2015-Mar-27 01:32N 29°56' W 090°00'0 0.0
2015-Mar-27 00:33N 29°56' W 090°00'0 0.1
2015-Mar-26 23:21N 29°56' W 090°00'0 0.1
2015-Mar-26 22:33N 29°56' W 090°00'0 0.0
2015-Mar-26 21:30N 29°56' W 090°00'0 0.0
2015-Mar-26 20:30N 29°56' W 090°00'0 0.0
2015-Mar-26 19:33N 29°56' W 090°00'0 0.0
2015-Mar-26 18:33N 29°56' W 090°00'0 0.0
2015-Mar-26 17:32N 29°56' W 090°00'0 0.0
2015-Mar-26 16:32N 29°56' W 090°00'0 0.0
2015-Mar-26 15:32N 29°56' W 090°00'0 0.0
2015-Mar-26 14:33N 29°56' W 090°00'0 0.0
2015-Mar-26 13:33N 29°56' W 090°00'0 0.0
2015-Mar-25 16:16N 29°56' W 090°00'0 0.3
2015-Mar-25 15:25N 29°57' W 090°01'2 2.6
2015-Mar-25 14:28N 29°57' W 090°03'2 2.4
2015-Mar-25 13:32N 29°57' W 090°01'1 0.2
2015-Mar-25 11:28N 29°56' W 090°00'0 0.0
2015-Mar-25 10:28N 29°56' W 090°00'0 0.0
2015-Mar-25 09:19N 29°56' W 090°00'0 0.0
2015-Mar-25 08:29N 29°56' W 090°00'0 0.0
2015-Mar-25 07:33N 29°56' W 090°00'0 0.0
2015-Mar-25 06:33N 29°56' W 090°00'0 0.0
2015-Mar-25 05:33N 29°56' W 090°00'0 0.0
2015-Mar-25 04:33N 29°56' W 090°00'0 0.0
2015-Mar-25 03:32N 29°56' W 090°00'2 1.5
2015-Mar-25 02:29N 29°55' W 089°59'1 0.7
2015-Mar-25 01:28N 29°55' W 089°59'6 5.8
2015-Mar-25 00:29N 29°50' W 090°03'4 1.5
2015-Mar-24 21:33N 29°54' W 089°60'2 1.8
2015-Mar-24 20:30N 29°55' W 089°58'2 1.1
2015-Mar-24 18:26N 29°56' W 090°00'2 2.5
2015-Mar-24 17:32N 29°58' W 090°01'0 0.0
2015-Mar-24 16:33N 29°58' W 090°01'1 1.1
2015-Mar-24 15:33N 29°59' W 090°01'2 1.5
2015-Mar-24 14:27N 29°58' W 090°02'0 0.3
2015-Mar-24 13:30N 29°58' W 090°02'0 0.0
2015-Mar-24 12:30N 29°58' W 090°02'1 1.2
2015-Mar-24 11:30N 29°57' W 090°01'3 0.2
2015-Mar-23 18:12N 29°60' W 090°00'2 1.4
2015-Mar-23 17:04N 29°58' W 090°01'2 1.1
2015-Mar-23 15:07N 29°56' W 090°00'0 0.1
2015-Mar-23 13:30N 29°56' W 090°00'0 0.0
2015-Mar-23 12:18N 29°56' W 090°00'0 0.3
2015-Mar-23 11:18N 29°56' W 090°00'0 0.0
2015-Mar-23 10:26N 29°56' W 090°00'0 0.0
2015-Mar-23 09:24N 29°56' W 090°00'1 1.2
2015-Mar-23 08:31N 29°57' W 090°01'3 2.7
2015-Mar-23 07:25N 29°60' W 090°01'0 0.4
2015-Mar-23 06:32N 29°60' W 090°00'1 0.9
2015-Mar-23 05:33N 29°60' W 090°01'1 0.8
2015-Mar-23 04:33N 29°60' W 090°00'2 2.0
2015-Mar-23 03:28N 29°58' W 090°02'1 0.8
2015-Mar-23 02:33N 29°57' W 090°01'2 2.4
2015-Mar-23 01:33N 29°56' W 089°59'1 1.0
2015-Mar-23 00:17N 29°55' W 089°58'0 0.1
2015-Mar-22 23:19N 29°55' W 089°58'1 1.6
2015-Mar-22 22:33N 29°54' W 089°60'2 0.4
2015-Mar-22 18:32N 29°55' W 089°58'1 0.8
2015-Mar-22 17:33N 29°55' W 089°57'3 2.7
2015-Mar-22 16:29N 29°56' W 090°00'0 0.0
2015-Mar-22 15:33N 29°56' W 090°00'0 0.0
2015-Mar-22 14:29N 29°56' W 090°00'0 0.0
2015-Mar-22 13:33N 29°56' W 090°00'0 0.0
2015-Mar-21 20:10N 29°56' W 090°00'0 0.1
2015-Mar-21 18:10N 29°56' W 090°00'3 0.7
2015-Mar-21 13:17N 29°59' W 090°01'3 1.6
2015-Mar-21 11:29N 29°56' W 090°00'2 1.8
2015-Mar-21 10:29N 29°58' W 090°02'2 2.1
2015-Mar-21 09:32N 29°60' W 090°01'1 0.6
2015-Mar-21 08:29N 29°59' W 090°01'2 2.0
2015-Mar-21 07:32N 29°57' W 090°02'0 0.2
2015-Mar-21 06:32N 29°57' W 090°01'2 1.6
2015-Mar-21 05:30N 29°56' W 090°00'2 2.3
2015-Mar-21 04:32N 29°58' W 090°02'3 2.9
2015-Mar-21 03:33N 30°00' W 089°59'3 2.5
2015-Mar-21 02:32N 29°58' W 090°01'1 0.7
2015-Mar-21 01:30N 29°58' W 090°02'2 2.3
2015-Mar-21 00:32N 29°56' W 089°60'2 1.7
2015-Mar-20 23:06N 29°58' W 090°02'1 1.7
2015-Mar-20 22:31N 29°59' W 090°01'0 0.0
2015-Mar-20 21:30N 29°59' W 090°01'1 0.1
2015-Mar-20 05:25N 29°60' W 089°60'0 0.0
2015-Mar-20 04:33N 29°60' W 089°60'3 2.1
2015-Mar-20 03:19N 29°58' W 090°02'1 0.9
2015-Mar-20 02:22N 29°57' W 090°01'1 0.8
2015-Mar-20 01:14N 29°56' W 090°00'0 0.1
2015-Mar-20 00:16N 29°56' W 090°00'0 0.1
2015-Mar-19 23:27N 29°56' W 090°00'0 0.0
2015-Mar-19 22:26N 29°56' W 090°00'0 0.0
2015-Mar-19 21:29N 29°56' W 090°00'0 0.0
2015-Mar-19 20:33N 29°56' W 090°00'0 0.0
2015-Mar-19 19:31N 29°56' W 090°00'0 0.0
2015-Mar-19 18:32N 29°56' W 090°00'1 1.2
2015-Mar-19 17:29N 29°56' W 089°59'3 3.2
2015-Mar-19 16:32N 29°58' W 090°02'0 0.4
2015-Mar-19 15:32N 29°58' W 090°02'1 0.9
2015-Mar-19 14:33N 29°59' W 090°01'0 0.0
2015-Mar-19 13:33N 29°59' W 090°01'2 1.7
2015-Mar-19 12:32N 29°60' W 089°60'5 5.0
2015-Mar-19 11:28N 30°01' W 089°54'5 4.7
2015-Mar-19 10:28N 29°60' W 089°59'3 3.4
2015-Mar-19 09:32N 29°58' W 090°02'3 2.7
2015-Mar-19 08:28N 29°56' W 089°59'3 3.2
2015-Mar-19 07:33N 29°58' W 090°02'1 0.0
2015-Mar-18 10:25N 29°59' W 090°01'0 0.0
2015-Mar-18 09:27N 29°59' W 090°01'2 1.6
2015-Mar-18 08:05N 29°60' W 089°59'2 4.6
2015-Mar-18 07:33N 29°58' W 090°02'1 1.3
2015-Mar-18 06:22N 29°57' W 090°01'3 0.8
2015-Mar-18 02:19N 29°55' W 089°57'5 3.8
2015-Mar-18 01:06N 29°58' W 090°02'0 0.4
2015-Mar-18 00:29N 29°58' W 090°02'0 0.1
2015-Mar-17 23:32N 29°58' W 090°02'0 0.3
2015-Mar-17 22:31N 29°58' W 090°02'2 2.0
2015-Mar-17 21:33N 29°56' W 090°00'0 0.0
2015-Mar-17 20:33N 29°56' W 090°00'0 0.0
2015-Mar-17 19:33N 29°56' W 090°00'2 1.6
2015-Mar-17 18:33N 29°55' W 089°59'0 0.4
2015-Mar-17 17:19N 29°55' W 089°58'4 5.3
2015-Mar-17 16:33N 29°58' W 090°02'1 0.5
2015-Mar-17 15:33N 29°58' W 090°01'1 1.2
2015-Mar-17 14:33N 29°60' W 090°01'2 1.8
2015-Mar-17 13:33N 29°58' W 090°02'2 1.9
2015-Mar-17 12:33N 29°56' W 090°00'0 0.2
2015-Mar-17 11:33N 29°56' W 090°00'  

Dump ship's entire track history